createdAt,value
2017-12-29T00:00:06.260Z,6.15
2017-12-29T00:02:33.790Z,6.93
2017-12-29T00:05:02.658Z,6.65
2017-12-29T00:07:31.657Z,6.28
2017-12-29T00:09:59.925Z,6.50
2017-12-29T00:12:27.433Z,6.03
2017-12-29T00:14:54.971Z,8.13
2017-12-29T00:17:23.287Z,6.85
2017-12-29T00:19:50.786Z,6.30
2017-12-29T00:22:18.285Z,6.78
2017-12-29T00:24:46.575Z,7.30
2017-12-29T00:27:15.621Z,7.62
2017-12-29T00:29:43.137Z,7.50
2017-12-29T00:32:11.455Z,6.30
2017-12-29T00:34:38.981Z,8.80
2017-12-29T00:37:06.476Z,6.35
2017-12-29T00:39:33.950Z,8.32
2017-12-29T00:42:01.567Z,7.53
2017-12-29T00:44:29.868Z,7.15
2017-12-29T00:46:57.544Z,6.07
2017-12-29T00:49:25.049Z,6.90
2017-12-29T00:51:53.944Z,6.80
2017-12-29T00:54:21.462Z,5.78
2017-12-29T00:56:48.959Z,7.43
2017-12-29T00:59:16.464Z,7.05
2017-12-29T01:01:44.717Z,7.80
2017-12-29T01:04:12.240Z,6.75
2017-12-29T01:06:39.784Z,6.87
2017-12-29T01:09:08.724Z,6.20
2017-12-29T01:11:36.368Z,7.03
2017-12-29T01:14:03.943Z,7.65
2017-12-29T01:16:31.465Z,7.32
2017-12-29T01:18:59.743Z,7.15
2017-12-29T01:21:28.605Z,6.68
2017-12-29T01:23:56.678Z,7.37
2017-12-29T01:26:24.241Z,7.00
2017-12-29T01:28:51.866Z,7.15
2017-12-29T01:31:19.361Z,7.10
2017-12-29T01:33:46.861Z,5.53
2017-12-29T01:36:15.822Z,6.12
2017-12-29T01:38:43.355Z,6.50
2017-12-29T01:41:10.892Z,5.87
2017-12-29T01:43:39.200Z,5.50
2017-12-29T01:46:06.712Z,5.87
2017-12-29T01:48:34.521Z,6.45
2017-12-29T01:51:02.104Z,6.70
2017-12-29T01:53:29.628Z,6.62
2017-12-29T01:55:57.187Z,5.60
2017-12-29T01:58:25.466Z,5.90
2017-12-29T02:00:53.067Z,6.47
2017-12-29T02:03:20.726Z,6.30
2017-12-29T02:05:49.164Z,7.20
2017-12-29T02:08:17.585Z,5.97
2017-12-29T02:10:45.867Z,5.95
2017-12-29T02:13:14.140Z,6.05
2017-12-29T02:15:43.275Z,5.57
2017-12-29T02:18:10.756Z,6.47
2017-12-29T02:20:38.404Z,6.40
2017-12-29T02:23:05.920Z,4.65
2017-12-29T02:25:34.207Z,5.62
2017-12-29T02:28:02.522Z,5.97
2017-12-29T02:30:30.071Z,5.70
2017-12-29T02:32:58.381Z,6.30
2017-12-29T02:35:26.761Z,5.28
2017-12-29T02:37:54.286Z,5.93
2017-12-29T02:40:22.559Z,5.80
2017-12-29T02:42:50.124Z,5.90
2017-12-29T02:45:18.544Z,5.47
2017-12-29T02:47:46.880Z,5.95
2017-12-29T02:50:15.228Z,5.80
2017-12-29T02:52:42.770Z,5.55
2017-12-29T02:55:10.277Z,5.70
2017-12-29T02:57:37.806Z,5.12
2017-12-29T03:00:05.324Z,5.40
2017-12-29T03:02:34.400Z,6.95
2017-12-29T03:05:01.925Z,5.57
2017-12-29T03:07:29.431Z,5.50
2017-12-29T03:09:57.040Z,5.43
2017-12-29T03:12:24.587Z,5.28
2017-12-29T03:14:52.871Z,4.87
2017-12-29T03:17:21.152Z,4.47
2017-12-29T03:19:49.432Z,6.03
2017-12-29T03:22:17.740Z,5.85
2017-12-29T03:24:45.253Z,5.37
2017-12-29T03:27:13.369Z,4.97
2017-12-29T03:29:41.645Z,5.20
2017-12-29T03:32:09.949Z,5.32
2017-12-29T03:34:37.487Z,5.50
2017-12-29T03:37:05.736Z,4.72
2017-12-29T03:39:34.036Z,4.70
2017-12-29T03:42:02.350Z,4.57
2017-12-29T03:44:29.872Z,5.70
2017-12-29T03:46:58.885Z,4.72
2017-12-29T03:49:27.124Z,5.15
2017-12-29T03:51:54.656Z,4.28
2017-12-29T03:54:22.135Z,4.62
2017-12-29T03:56:49.641Z,6.18
2017-12-29T03:59:17.914Z,5.37
2017-12-29T04:01:45.510Z,5.15
2017-12-29T04:04:13.769Z,5.03
2017-12-29T04:06:42.081Z,4.70
2017-12-29T04:09:10.337Z,5.20
2017-12-29T04:11:38.657Z,4.95
2017-12-29T04:14:06.182Z,4.37
2017-12-29T04:16:34.452Z,4.40
2017-12-29T04:19:02.405Z,4.60
2017-12-29T04:21:29.932Z,5.12
2017-12-29T04:23:57.427Z,4.37
2017-12-29T04:26:24.920Z,4.85
2017-12-29T04:28:52.407Z,5.10
2017-12-29T04:31:19.918Z,5.55
2017-12-29T04:33:47.554Z,5.50
2017-12-29T04:36:15.522Z,4.80
2017-12-29T04:38:43.004Z,3.85
2017-12-29T04:41:10.536Z,4.75
2017-12-29T04:43:38.030Z,4.68
2017-12-29T04:46:05.644Z,4.60
2017-12-29T04:48:33.899Z,5.30
2017-12-29T04:51:01.418Z,4.35
2017-12-29T04:53:30.907Z,4.62
2017-12-29T04:55:58.606Z,4.55
2017-12-29T04:58:26.125Z,4.97
2017-12-29T05:00:53.620Z,4.68
2017-12-29T05:03:21.196Z,4.07
2017-12-29T05:05:48.691Z,5.12
2017-12-29T05:08:16.286Z,4.70
2017-12-29T05:10:44.583Z,4.65
2017-12-29T05:13:13.082Z,4.70
2017-12-29T05:15:40.568Z,4.28
2017-12-29T05:18:08.071Z,4.20
2017-12-29T05:20:35.569Z,4.15
2017-12-29T05:23:03.068Z,4.87
2017-12-29T05:25:30.660Z,4.78
2017-12-29T05:27:58.775Z,4.55
2017-12-29T05:30:26.334Z,4.35
2017-12-29T05:32:53.839Z,5.18
2017-12-29T05:35:21.396Z,5.45
2017-12-29T05:37:48.924Z,4.25
2017-12-29T05:40:16.415Z,4.35
2017-12-29T05:42:43.959Z,6.07
2017-12-29T05:45:11.484Z,4.03
2017-12-29T05:47:38.981Z,5.53
2017-12-29T05:50:07.376Z,4.87
2017-12-29T05:52:34.859Z,4.80
2017-12-29T05:55:02.369Z,4.72
2017-12-29T05:57:30.729Z,3.62
2017-12-29T05:59:58.253Z,4.25
2017-12-29T06:02:25.771Z,5.05
2017-12-29T06:04:54.016Z,4.75
2017-12-29T06:07:22.321Z,6.00
2017-12-29T06:09:50.619Z,5.53
2017-12-29T06:12:18.950Z,4.53
2017-12-29T06:14:46.490Z,4.18
2017-12-29T06:17:14.076Z,4.78
2017-12-29T06:19:41.572Z,4.82
2017-12-29T06:22:09.065Z,5.00
2017-12-29T06:24:37.322Z,5.40
2017-12-29T06:27:04.808Z,5.62
2017-12-29T06:29:33.840Z,5.05
2017-12-29T06:32:01.341Z,4.90
2017-12-29T06:34:28.884Z,5.12
2017-12-29T06:36:56.380Z,5.22
2017-12-29T06:39:24.636Z,5.35
2017-12-29T06:41:52.153Z,5.60
2017-12-29T06:44:19.629Z,5.28
2017-12-29T06:46:47.200Z,4.45
2017-12-29T06:49:15.109Z,6.55
2017-12-29T06:51:43.380Z,5.90
2017-12-29T06:54:11.000Z,4.95
2017-12-29T06:56:38.549Z,5.28
2017-12-29T06:59:06.074Z,5.78
2017-12-29T07:01:33.560Z,6.60
2017-12-29T07:04:02.766Z,4.80
2017-12-29T07:06:32.158Z,6.05
2017-12-29T07:09:00.456Z,5.75
2017-12-29T07:11:28.723Z,5.45
2017-12-29T07:13:57.006Z,5.32
2017-12-29T07:16:25.276Z,5.72
2017-12-29T07:18:53.928Z,5.00
2017-12-29T07:21:21.464Z,4.87
2017-12-29T07:23:49.243Z,5.20
2017-12-29T07:26:16.759Z,4.75
2017-12-29T07:28:45.166Z,5.18
2017-12-29T07:31:13.404Z,4.75
2017-12-29T07:33:40.934Z,4.90
2017-12-29T07:36:08.416Z,4.43
2017-12-29T07:38:35.929Z,5.00
2017-12-29T07:41:04.218Z,5.47
2017-12-29T07:43:32.481Z,5.10
2017-12-29T07:46:00.757Z,5.30
2017-12-29T07:48:28.246Z,4.75
2017-12-29T07:50:56.512Z,4.72
2017-12-29T07:53:24.768Z,5.12
2017-12-29T07:55:52.392Z,4.75
2017-12-29T07:58:20.789Z,4.40
2017-12-29T08:00:48.344Z,4.95
2017-12-29T08:03:15.899Z,5.35
2017-12-29T08:05:43.469Z,5.18
2017-12-29T08:08:10.996Z,5.10
2017-12-29T08:10:39.518Z,6.10
2017-12-29T08:13:07.049Z,4.60
2017-12-29T08:15:35.313Z,5.07
2017-12-29T08:18:02.864Z,5.03
2017-12-29T08:20:30.901Z,5.32
2017-12-29T08:22:58.436Z,5.07
2017-12-29T08:25:26.713Z,5.47
2017-12-29T08:27:54.997Z,5.15
2017-12-29T08:30:23.320Z,5.30
2017-12-29T08:32:50.845Z,4.65
2017-12-29T08:35:19.153Z,7.07
2017-12-29T08:37:46.698Z,6.00
2017-12-29T08:40:14.961Z,5.25
2017-12-29T08:42:44.038Z,4.85
2017-12-29T08:45:11.563Z,5.90
2017-12-29T08:47:39.100Z,5.07
2017-12-29T08:50:07.700Z,5.93
2017-12-29T08:52:35.286Z,5.75
2017-12-29T08:55:02.805Z,6.10
2017-12-29T08:57:31.080Z,5.20
2017-12-29T08:59:58.660Z,5.47
2017-12-29T09:02:27.492Z,5.70
2017-12-29T09:04:55.898Z,6.15
2017-12-29T09:07:23.399Z,5.20
2017-12-29T09:09:51.675Z,6.43
2017-12-29T09:12:19.944Z,5.82
2017-12-29T09:14:47.558Z,5.30
2017-12-29T09:17:16.319Z,6.43
2017-12-29T09:19:45.237Z,4.35
2017-12-29T09:22:13.620Z,5.03
2017-12-29T09:24:41.127Z,3.95
2017-12-29T09:27:08.625Z,5.22
2017-12-29T09:29:36.904Z,5.12
2017-12-29T09:32:06.121Z,4.18
2017-12-29T09:34:33.843Z,3.97
2017-12-29T09:37:02.098Z,5.00
2017-12-29T09:39:30.186Z,4.87
2017-12-29T09:41:58.452Z,4.80
2017-12-29T09:44:25.934Z,6.32
2017-12-29T09:46:53.586Z,5.68
2017-12-29T09:49:22.301Z,4.78
2017-12-29T09:51:51.044Z,5.55
2017-12-29T09:54:18.703Z,4.72
2017-12-29T09:56:46.934Z,4.78
2017-12-29T09:59:14.421Z,5.47
2017-12-29T10:01:42.329Z,4.07
2017-12-29T10:04:11.505Z,4.87
2017-12-29T10:06:40.851Z,4.72
2017-12-29T10:09:08.367Z,4.53
2017-12-29T10:11:37.715Z,4.85
2017-12-29T10:14:05.244Z,4.35
2017-12-29T10:16:33.622Z,3.72
2017-12-29T10:19:01.647Z,4.12
2017-12-29T10:21:29.178Z,5.10
2017-12-29T10:23:56.751Z,4.60
2017-12-29T10:26:24.827Z,4.65
2017-12-29T10:28:52.313Z,5.18
2017-12-29T10:31:20.546Z,5.50
2017-12-29T10:33:49.136Z,4.65
2017-12-29T10:36:19.288Z,4.50
2017-12-29T10:38:46.813Z,5.15
2017-12-29T10:41:15.094Z,5.03
2017-12-29T10:43:43.398Z,6.10
2017-12-29T10:46:10.865Z,5.43
2017-12-29T10:48:39.655Z,4.65
2017-12-29T10:51:07.637Z,4.43
2017-12-29T10:53:35.214Z,5.43
2017-12-29T10:56:03.518Z,4.45
2017-12-29T10:58:32.593Z,4.28
2017-12-29T11:01:00.689Z,5.90
2017-12-29T11:03:28.445Z,4.40
2017-12-29T11:05:56.781Z,4.82
2017-12-29T11:08:25.694Z,4.20
2017-12-29T11:10:53.636Z,5.05
2017-12-29T11:13:21.867Z,4.97
2017-12-29T11:15:51.877Z,5.10
2017-12-29T11:18:19.725Z,3.80
2017-12-29T11:20:48.198Z,3.92
2017-12-29T11:23:17.274Z,4.40
2017-12-29T11:25:44.788Z,5.95
2017-12-29T11:28:12.358Z,4.50
2017-12-29T11:30:39.856Z,7.95
2017-12-29T11:33:07.460Z,4.15
2017-12-29T11:35:35.746Z,4.28
2017-12-29T11:38:03.309Z,4.28
2017-12-29T11:40:31.954Z,3.67
2017-12-29T11:43:00.176Z,3.80
2017-12-29T11:45:28.440Z,4.55
2017-12-29T11:47:56.028Z,4.10
2017-12-29T11:50:23.532Z,3.80
2017-12-29T11:52:51.084Z,4.10
2017-12-29T11:55:19.300Z,4.45
2017-12-29T11:57:46.818Z,4.62
2017-12-29T12:00:14.317Z,4.43
2017-12-29T12:02:41.817Z,4.97
2017-12-29T12:05:10.113Z,4.10
2017-12-29T12:07:37.654Z,4.10
2017-12-29T12:10:06.043Z,3.42
2017-12-29T12:12:33.597Z,3.67
2017-12-29T12:15:02.664Z,3.77
2017-12-29T12:17:30.213Z,3.43
2017-12-29T12:19:58.086Z,4.00
2017-12-29T12:22:25.694Z,4.23
2017-12-29T12:24:53.373Z,3.90
2017-12-29T12:27:21.687Z,4.00
2017-12-29T12:29:49.213Z,3.87
2017-12-29T12:32:17.533Z,4.27
2017-12-29T12:34:45.931Z,4.60
2017-12-29T12:37:13.529Z,6.10
2017-12-29T12:39:41.026Z,4.40
2017-12-29T12:42:08.533Z,4.53
2017-12-29T12:44:36.408Z,3.95
2017-12-29T12:47:03.918Z,4.80
2017-12-29T12:49:31.564Z,3.62
2017-12-29T12:51:59.201Z,3.63
2017-12-29T12:54:26.731Z,3.90
2017-12-29T12:56:54.220Z,4.53
2017-12-29T12:59:21.821Z,2.85
2017-12-29T13:01:50.151Z,3.58
2017-12-29T13:04:17.672Z,3.85
2017-12-29T13:06:45.971Z,3.95
2017-12-29T13:09:13.587Z,3.70
2017-12-29T13:11:41.106Z,3.67
2017-12-29T13:14:08.614Z,3.40
2017-12-29T13:16:36.314Z,3.60
2017-12-29T13:19:04.521Z,3.47
2017-12-29T13:21:33.007Z,3.47
2017-12-29T13:24:01.405Z,3.37
2017-12-29T13:26:28.980Z,4.37
2017-12-29T13:28:57.450Z,3.95
2017-12-29T13:31:25.016Z,3.80
2017-12-29T13:33:52.560Z,4.10
2017-12-29T13:36:20.137Z,4.15
2017-12-29T13:38:48.422Z,3.17
2017-12-29T13:41:16.086Z,3.92
2017-12-29T13:43:43.649Z,3.70
2017-12-29T13:46:11.929Z,3.97
2017-12-29T13:48:39.601Z,4.37
2017-12-29T13:51:07.811Z,4.15
2017-12-29T13:53:35.396Z,4.07
2017-12-29T13:56:03.816Z,3.55
2017-12-29T13:58:31.338Z,4.37
2017-12-29T14:00:59.001Z,3.58
2017-12-29T14:03:26.835Z,3.60
2017-12-29T14:05:54.851Z,3.60
2017-12-29T14:08:22.371Z,3.80
2017-12-29T14:10:50.551Z,4.87
2017-12-29T14:13:18.178Z,4.30
2017-12-29T14:15:46.513Z,3.85
2017-12-29T14:18:14.098Z,4.25
2017-12-29T14:20:41.932Z,3.83
2017-12-29T14:23:09.540Z,4.07
2017-12-29T14:25:37.061Z,3.40
2017-12-29T14:28:05.110Z,3.60
2017-12-29T14:30:32.796Z,4.12
2017-12-29T14:33:01.120Z,3.92
2017-12-29T14:35:28.680Z,3.55
2017-12-29T14:37:56.224Z,3.50
2017-12-29T14:40:24.171Z,3.17
2017-12-29T14:42:52.487Z,3.65
2017-12-29T14:45:19.985Z,2.70
2017-12-29T14:47:48.410Z,3.22
2017-12-29T14:50:15.937Z,3.05
2017-12-29T14:52:43.496Z,2.90
2017-12-29T14:55:11.115Z,3.78
2017-12-29T14:57:38.698Z,3.40
2017-12-29T15:00:06.217Z,4.28
2017-12-29T15:02:34.840Z,4.43
2017-12-29T15:05:02.398Z,7.18
2017-12-29T15:07:29.928Z,6.50
2017-12-29T15:09:58.290Z,8.45
2017-12-29T15:12:25.855Z,6.18
2017-12-29T15:14:54.265Z,3.95
2017-12-29T15:17:21.993Z,4.43
2017-12-29T15:19:49.539Z,4.90
2017-12-29T15:22:17.181Z,4.22
2017-12-29T15:24:44.731Z,3.97
2017-12-29T15:27:12.335Z,6.10
2017-12-29T15:29:39.911Z,5.60
2017-12-29T15:32:07.484Z,7.60
2017-12-29T15:34:34.996Z,7.47
2017-12-29T15:37:02.558Z,6.85
2017-12-29T15:39:30.140Z,6.40
2017-12-29T15:41:57.703Z,6.47
2017-12-29T15:44:25.268Z,7.32
2017-12-29T15:46:52.814Z,7.05
2017-12-29T15:49:20.332Z,6.47
2017-12-29T15:51:47.868Z,5.82
2017-12-29T15:54:15.394Z,6.15
2017-12-29T15:56:42.936Z,6.72
2017-12-29T15:59:10.559Z,6.15
2017-12-29T16:01:48.749Z,4.80
2017-12-29T16:04:16.894Z,5.75
2017-12-29T16:06:45.249Z,6.03
2017-12-29T16:09:12.750Z,5.90
2017-12-29T16:11:40.272Z,12.10
2017-12-29T16:14:07.828Z,9.13
2017-12-29T16:16:35.328Z,7.53
2017-12-29T16:19:03.611Z,6.62
2017-12-29T16:21:31.123Z,8.35
2017-12-29T16:23:58.704Z,6.72
2017-12-29T16:26:26.296Z,6.55
2017-12-29T16:28:53.910Z,7.35
2017-12-29T16:31:22.284Z,9.45
2017-12-29T16:33:49.838Z,8.77
2017-12-29T16:36:18.152Z,9.32
2017-12-29T16:38:45.674Z,8.00
2017-12-29T16:41:13.327Z,9.35
2017-12-29T16:43:41.661Z,9.30
2017-12-29T16:46:09.338Z,9.65
2017-12-29T16:48:36.872Z,8.27
2017-12-29T16:51:04.542Z,8.43
2017-12-29T16:53:32.049Z,6.57
2017-12-29T16:55:59.577Z,7.72
2017-12-29T16:58:27.090Z,8.02
2017-12-29T17:00:54.665Z,6.72
2017-12-29T17:03:22.899Z,6.78
2017-12-29T17:05:50.442Z,6.55
2017-12-29T17:08:18.012Z,7.03
2017-12-29T17:10:46.246Z,7.97
2017-12-29T17:13:14.545Z,10.88
2017-12-29T17:15:42.070Z,9.20
2017-12-29T17:18:11.167Z,9.23
2017-12-29T17:20:38.722Z,9.00
2017-12-29T17:23:06.294Z,7.47
2017-12-29T17:25:33.944Z,9.90
2017-12-29T17:28:01.503Z,9.02
2017-12-29T17:33:20.933Z,10.55
2017-12-29T17:35:48.501Z,10.23
2017-12-29T17:38:16.025Z,12.52
2017-12-29T17:40:43.541Z,14.73
2017-12-29T17:43:11.933Z,16.70
2017-12-29T17:45:40.264Z,13.38
2017-12-29T17:48:07.800Z,10.45
2017-12-29T17:50:35.368Z,8.73
2017-12-29T17:53:02.872Z,7.62
2017-12-29T17:55:30.475Z,6.10
2017-12-29T17:57:57.990Z,4.55
2017-12-29T18:00:25.492Z,6.32
2017-12-29T18:02:53.765Z,5.60
2017-12-29T18:05:22.203Z,5.00
2017-12-29T18:07:49.751Z,4.93
2017-12-29T18:10:17.857Z,5.32
2017-12-29T18:12:46.110Z,5.05
2017-12-29T18:15:14.490Z,4.78
2017-12-29T18:17:42.084Z,4.80
2017-12-29T18:20:09.710Z,4.97
2017-12-29T18:22:37.299Z,4.43
2017-12-29T18:25:04.843Z,5.00
2017-12-29T18:27:32.409Z,4.87
2017-12-29T18:29:59.929Z,4.68
2017-12-29T18:32:27.508Z,5.10
2017-12-29T18:34:55.826Z,3.90
2017-12-29T18:37:25.961Z,4.95
2017-12-29T18:39:53.500Z,4.18
2017-12-29T18:42:21.125Z,4.72
2017-12-29T18:44:48.663Z,4.90
2017-12-29T18:47:16.293Z,4.85
2017-12-29T18:49:43.936Z,5.43
2017-12-29T18:52:11.453Z,6.10
2017-12-29T18:54:38.971Z,27.45
2017-12-29T18:57:07.305Z,5.43
2017-12-29T18:59:35.152Z,6.07
2017-12-29T19:02:02.734Z,5.40
2017-12-29T19:04:30.273Z,5.90
2017-12-29T19:06:57.853Z,4.50
2017-12-29T19:09:25.408Z,4.40
2017-12-29T19:11:52.971Z,6.00
2017-12-29T19:14:21.293Z,5.10
2017-12-29T19:16:48.905Z,5.00
2017-12-29T19:19:16.464Z,5.28
2017-12-29T19:21:44.069Z,5.10
2017-12-29T19:24:11.580Z,6.00
2017-12-29T19:26:39.198Z,5.18
2017-12-29T19:29:06.699Z,5.53
2017-12-29T19:31:34.218Z,6.07
2017-12-29T19:34:01.736Z,5.62
2017-12-29T19:36:29.260Z,6.30
2017-12-29T19:38:57.005Z,6.10
2017-12-29T19:41:24.518Z,6.60
2017-12-29T19:43:52.066Z,5.20
2017-12-29T19:46:20.464Z,4.28
2017-12-29T19:48:48.030Z,5.10
2017-12-29T19:51:16.488Z,5.87
2017-12-29T19:53:44.497Z,5.00
2017-12-29T19:56:12.108Z,5.18
2017-12-29T19:58:40.319Z,5.30
2017-12-29T20:01:08.182Z,5.43
2017-12-29T20:03:35.688Z,5.20
2017-12-29T20:06:04.076Z,4.57
2017-12-29T20:08:32.589Z,4.20
2017-12-29T20:11:00.280Z,4.07
2017-12-29T20:13:27.959Z,5.43
2017-12-29T20:15:55.565Z,4.35
2017-12-29T20:18:23.102Z,5.50
2017-12-29T20:20:50.665Z,5.40
2017-12-29T20:23:19.007Z,5.60
2017-12-29T20:25:46.579Z,5.90
2017-12-29T20:28:14.184Z,6.45
2017-12-29T20:30:42.612Z,6.43
2017-12-29T20:33:10.165Z,7.25
2017-12-29T20:35:37.782Z,5.97
2017-12-29T20:38:05.398Z,6.25
2017-12-29T20:40:34.386Z,6.97
2017-12-29T20:43:02.002Z,7.53
2017-12-29T20:45:29.552Z,7.50
2017-12-29T20:47:57.069Z,5.45
2017-12-29T20:50:24.649Z,6.50
2017-12-29T20:52:52.179Z,7.12
2017-12-29T20:55:19.764Z,6.75
2017-12-29T20:57:51.239Z,7.80
2017-12-29T21:00:18.851Z,6.37
2017-12-29T21:02:48.876Z,6.97
2017-12-29T21:05:16.455Z,5.87
2017-12-29T21:07:44.856Z,5.80
2017-12-29T21:10:12.882Z,5.53
2017-12-29T21:12:40.508Z,6.37
2017-12-29T21:15:08.048Z,5.95
2017-12-29T21:17:35.629Z,5.50
2017-12-29T21:20:04.742Z,6.97
2017-12-29T21:22:33.121Z,6.90
2017-12-29T21:25:00.667Z,6.05
2017-12-29T21:27:28.339Z,7.40
2017-12-29T21:29:56.147Z,10.63
2017-12-29T21:32:23.796Z,9.07
2017-12-29T21:34:51.407Z,8.85
2017-12-29T21:37:19.121Z,7.15
2017-12-29T21:39:46.640Z,5.95
2017-12-29T21:42:14.918Z,7.45
2017-12-29T21:44:42.452Z,7.05
2017-12-29T21:47:09.987Z,7.50
2017-12-29T21:49:37.547Z,8.43
2017-12-29T21:52:05.952Z,7.00
2017-12-29T21:54:33.491Z,7.43
2017-12-29T21:57:01.025Z,7.10
2017-12-29T21:59:28.654Z,6.93
2017-12-29T22:01:57.122Z,6.22
2017-12-29T22:04:24.630Z,5.28
2017-12-29T22:06:52.182Z,5.75
2017-12-29T22:09:19.702Z,9.20
2017-12-29T22:11:48.005Z,5.85
2017-12-29T22:14:16.192Z,6.03
2017-12-29T22:16:43.757Z,3.92
2017-12-29T22:19:11.331Z,5.45
2017-12-29T22:21:39.486Z,5.25
2017-12-29T22:24:07.030Z,7.97
2017-12-29T22:26:34.611Z,6.72
2017-12-29T22:29:02.167Z,5.40
2017-12-29T22:31:30.557Z,5.68
2017-12-29T22:33:58.082Z,5.50
2017-12-29T22:36:25.675Z,4.20
2017-12-29T22:38:53.230Z,4.60
2017-12-29T22:41:20.794Z,5.20
2017-12-29T22:43:49.189Z,4.37
2017-12-29T22:46:16.700Z,4.95
2017-12-29T22:48:44.562Z,4.47
2017-12-29T22:51:12.668Z,4.45
2017-12-29T22:53:40.281Z,5.18
2017-12-29T22:56:07.857Z,5.35
2017-12-29T22:58:35.394Z,4.18
2017-12-29T23:01:02.876Z,4.70
2017-12-29T23:03:30.364Z,3.65
2017-12-29T23:05:57.928Z,3.33
2017-12-29T23:08:25.463Z,3.20
2017-12-29T23:10:52.963Z,4.28
2017-12-29T23:13:20.503Z,3.92
2017-12-29T23:15:48.073Z,4.55
2017-12-29T23:18:15.659Z,3.80
2017-12-29T23:20:44.435Z,3.67
2017-12-29T23:23:12.241Z,3.80
2017-12-29T23:25:40.566Z,3.80
2017-12-29T23:28:08.313Z,3.75
2017-12-29T23:30:35.837Z,4.28
2017-12-29T23:33:05.485Z,4.30
2017-12-29T23:35:33.350Z,4.03
2017-12-29T23:38:01.876Z,7.50
2017-12-29T23:40:30.037Z,5.03
2017-12-29T23:42:57.584Z,4.15
2017-12-29T23:45:25.929Z,3.80
2017-12-29T23:47:53.846Z,3.15
2017-12-29T23:50:22.744Z,6.12
2017-12-29T23:52:51.139Z,4.12
2017-12-29T23:55:18.753Z,4.00
2017-12-29T23:57:46.310Z,4.60
